Station Historical Data
Daily Summary for January 18, 2017 Units:  English    Metric   Both
« Previous Day
Next Day »
Daily Weekly Monthly Yearly Custom
  High: Low: Average:
Temperature: 38.0 °F 35.3 °F 36 °F
Dew Point: 37.0 °F 34.0 °F 34.8 °F
Humidity: 96% 94% 95%
Wind Speed: 14.0mph 2.0mph 6.9mph
Wind Gust: 20.0mph - -
Wind- - WSW
Pressure: 30.06 in 29.83 in -
Precipitation: 0.00 in    
Historical Graphs
 
 
Tabular Data for January 18, 2017
Time Temperature Dew Point Pressure Wind Wind Speed Wind Gust Humidity Rainfall Rate (Hourly)
00:04 38.0 °F 36.7 °F 29.83 in West 5.0 mph 12.0 mph 95% 0.01 in
00:09 38.0 °F 37.0 °F 29.83 in SW 6.0 mph 12.0 mph 96% 0.01 in
00:14 38.0 °F 37.0 °F 29.84 in WSW 6.0 mph 15.0 mph 96% 0.01 in
00:19 38.0 °F 37.0 °F 29.84 in WSW 7.0 mph 15.0 mph 96% 0.01 in
00:24 38.0 °F 37.0 °F 29.84 in WSW 6.0 mph 13.0 mph 96% 0.01 in
00:29 37.9 °F 36.6 °F 29.84 in WSW 6.0 mph 13.0 mph 95% 0.00 in
00:34 37.8 °F 36.5 °F 29.84 in WSW 7.0 mph 13.0 mph 95% 0.00 in
00:39 37.7 °F 36.4 °F 29.84 in WSW 7.0 mph 13.0 mph 95% 0.00 in
00:44 37.6 °F 36.3 °F 29.84 in WSW 6.0 mph 10.0 mph 95% 0.00 in
00:49 37.6 °F 36.3 °F 29.84 in SW 4.0 mph 13.0 mph 95% 0.00 in
00:54 37.5 °F 36.2 °F 29.84 in WSW 6.0 mph 14.0 mph 95% 0.00 in
00:59 37.4 °F 36.4 °F 29.84 in WSW 6.0 mph 10.0 mph 96% 0.00 in
01:04 37.5 °F 36.5 °F 29.84 in WSW 9.0 mph 10.0 mph 96% 0.00 in
01:09 37.5 °F 36.5 °F 29.84 in WSW 6.0 mph 11.0 mph 96% 0.00 in
01:14 37.4 °F 36.4 °F 29.85 in SW 6.0 mph 9.0 mph 96% 0.00 in
01:24 37.4 °F 36.4 °F 29.85 in WSW 6.0 mph 14.0 mph 96% 0.00 in
01:29 37.3 °F 36.3 °F 29.85 in WSW 6.0 mph 14.0 mph 96% 0.00 in
01:34 37.2 °F 36.2 °F 29.85 in WSW 6.0 mph 13.0 mph 96% 0.00 in
01:39 37.2 °F 36.2 °F 29.85 in WSW 6.0 mph 13.0 mph 96% 0.00 in
01:44 37.1 °F 35.8 °F 29.85 in SW 6.0 mph 13.0 mph 95% 0.00 in
01:49 37.0 °F 35.7 °F 29.86 in WSW 14.0 mph 15.0 mph 95% 0.00 in
01:54 37.0 °F 35.7 °F 29.86 in WSW 5.0 mph 14.0 mph 95% 0.01 in
01:59 36.9 °F 35.9 °F 29.86 in SW 6.0 mph 9.0 mph 96% 0.01 in
02:04 36.8 °F 35.8 °F 29.86 in WSW 6.0 mph 11.0 mph 96% 0.01 in
02:09 36.7 °F 35.7 °F 29.86 in WSW 6.0 mph 11.0 mph 96% 0.01 in
02:14 36.7 °F 35.4 °F 29.86 in WSW 3.0 mph 11.0 mph 95% 0.01 in
02:19 36.6 °F 35.3 °F 29.86 in SW 7.0 mph 11.0 mph 95% 0.01 in
02:24 36.5 °F 35.2 °F 29.87 in WSW 8.0 mph 12.0 mph 95% 0.01 in
02:29 36.5 °F 35.2 °F 29.87 in SW 7.0 mph 15.0 mph 95% 0.01 in
02:34 36.4 °F 35.1 °F 29.87 in WSW 8.0 mph 15.0 mph 95% 0.01 in
02:39 36.4 °F 35.4 °F 29.87 in WSW 6.0 mph 14.0 mph 96% 0.01 in
02:44 36.4 °F 35.4 °F 29.87 in WSW 6.0 mph 11.0 mph 96% 0.01 in
02:49 36.6 °F 35.6 °F 29.87 in SW 8.0 mph 13.0 mph 96% 0.01 in
02:54 36.7 °F 35.7 °F 29.87 in WSW 9.0 mph 14.0 mph 96% 0.00 in
02:59 36.7 °F 35.7 °F 29.87 in WSW 8.0 mph 14.0 mph 96% 0.00 in
03:04 36.8 °F 35.8 °F 29.87 in WSW 8.0 mph 12.0 mph 96% 0.00 in
03:09 36.9 °F 35.9 °F 29.87 in West 5.0 mph 14.0 mph 96% 0.00 in
03:14 36.9 °F 35.9 °F 29.87 in WSW 7.0 mph 15.0 mph 96% 0.00 in
03:19 36.9 °F 35.9 °F 29.88 in WSW 9.0 mph 13.0 mph 96% 0.00 in
03:24 36.9 °F 35.9 °F 29.88 in WSW 4.0 mph 10.0 mph 96% 0.00 in
03:29 36.9 °F 35.9 °F 29.88 in SW 4.0 mph 14.0 mph 96% 0.00 in
03:34 36.9 °F 35.9 °F 29.88 in WSW 7.0 mph 16.0 mph 96% 0.00 in
03:39 36.9 °F 35.9 °F 29.88 in WSW 7.0 mph 16.0 mph 96% 0.00 in
03:44 36.8 °F 35.8 °F 29.88 in WSW 6.0 mph 11.0 mph 96% 0.00 in
03:49 36.7 °F 35.4 °F 29.88 in SW 7.0 mph 14.0 mph 95% 0.00 in
03:54 36.6 °F 35.6 °F 29.88 in WSW 6.0 mph 12.0 mph 96% 0.00 in
03:59 36.5 °F 35.5 °F 29.88 in WSW 7.0 mph 14.0 mph 96% 0.00 in
04:04 36.5 °F 35.5 °F 29.89 in SW 6.0 mph 12.0 mph 96% 0.00 in
04:09 36.4 °F 35.4 °F 29.89 in SW 5.0 mph 12.0 mph 96% 0.00 in
04:14 36.4 °F 35.4 °F 29.89 in WSW 9.0 mph 12.0 mph 96% 0.00 in
04:19 36.3 °F 35.3 °F 29.89 in SW 5.0 mph 13.0 mph 96% 0.00 in
04:24 36.3 °F 35.3 °F 29.89 in WSW 7.0 mph 15.0 mph 96% 0.01 in
04:29 36.2 °F 35.2 °F 29.89 in WSW 8.0 mph 15.0 mph 96% 0.01 in
04:34 36.2 °F 35.2 °F 29.89 in WSW 7.0 mph 15.0 mph 96% 0.01 in
04:39 36.1 °F 35.1 °F 29.90 in WSW 6.0 mph 15.0 mph 96% 0.01 in
04:44 36.1 °F 35.1 °F 29.90 in WSW 7.0 mph 12.0 mph 96% 0.01 in
04:49 36.1 °F 35.1 °F 29.90 in WSW 6.0 mph 12.0 mph 96% 0.01 in
04:54 36.0 °F 35.0 °F 29.90 in SW 7.0 mph 17.0 mph 96% 0.01 in
04:59 35.9 °F 34.9 °F 29.90 in SW 4.0 mph 11.0 mph 96% 0.02 in
05:04 35.9 °F 34.9 °F 29.90 in SW 5.0 mph 11.0 mph 96% 0.02 in
05:09 35.9 °F 34.9 °F 29.90 in WSW 6.0 mph 15.0 mph 96% 0.02 in
05:14 35.9 °F 34.9 °F 29.91 in West 8.0 mph 12.0 mph 96% 0.03 in
05:19 35.8 °F 34.8 °F 29.91 in WSW 7.0 mph 14.0 mph 96% 0.03 in
05:24 35.8 °F 34.8 °F 29.91 in SW 5.0 mph 12.0 mph 96% 0.02 in
05:29 35.7 °F 34.7 °F 29.91 in WSW 7.0 mph 15.0 mph 96% 0.02 in
05:34 35.8 °F 34.8 °F 29.91 in WSW 6.0 mph 15.0 mph 96% 0.03 in
05:39 35.8 °F 34.8 °F 29.92 in WSW 6.0 mph 15.0 mph 96% 0.03 in
05:44 35.9 °F 34.9 °F 29.92 in WSW 6.0 mph 16.0 mph 96% 0.03 in
05:49 35.9 °F 34.9 °F 29.92 in WSW 7.0 mph 16.0 mph 96% 0.03 in
05:54 35.9 °F 34.9 °F 29.92 in WSW 8.0 mph 17.0 mph 96% 0.03 in
05:59 35.8 °F 34.8 °F 29.92 in SW 7.0 mph 15.0 mph 96% 0.02 in
06:04 35.8 °F 34.8 °F 29.92 in WSW 7.0 mph 15.0 mph 96% 0.02 in
06:09 35.8 °F 34.8 °F 29.92 in West 4.0 mph 13.0 mph 96% 0.02 in
06:14 35.7 °F 34.7 °F 29.92 in WSW 5.0 mph 13.0 mph 96% 0.01 in
06:19 35.6 °F 34.6 °F 29.93 in WSW 4.0 mph 16.0 mph 96% 0.01 in
06:24 35.6 °F 34.6 °F 29.93 in NW 5.0 mph 17.0 mph 96% 0.01 in
06:29 35.6 °F 34.6 °F 29.93 in WSW 10.0 mph 15.0 mph 96% 0.02 in
06:34 35.5 °F 34.5 °F 29.93 in WSW 8.0 mph 15.0 mph 96% 0.01 in
06:39 35.6 °F 34.6 °F 29.93 in WSW 7.0 mph 14.0 mph 96% 0.01 in
06:44 35.6 °F 34.6 °F 29.93 in WSW 7.0 mph 16.0 mph 96% 0.01 in
06:49 35.6 °F 34.6 °F 29.93 in SSW 11.0 mph 17.0 mph 96% 0.01 in
06:54 35.6 °F 34.6 °F 29.93 in WNW 6.0 mph 15.0 mph 96% 0.01 in
06:59 35.7 °F 34.7 °F 29.93 in SW 9.0 mph 15.0 mph 96% 0.01 in
07:04 35.6 °F 34.6 °F 29.93 in WSW 8.0 mph 17.0 mph 96% 0.01 in
07:09 35.6 °F 34.6 °F 29.93 in WSW 9.0 mph 17.0 mph 96% 0.01 in
07:14 35.6 °F 34.6 °F 29.93 in WSW 8.0 mph 16.0 mph 96% 0.01 in
07:19 35.7 °F 34.7 °F 29.93 in WSW 6.0 mph 14.0 mph 96% 0.01 in
07:24 35.6 °F 34.6 °F 29.93 in WSW 11.0 mph 14.0 mph 96% 0.01 in
07:29 35.6 °F 34.6 °F 29.94 in West 6.0 mph 14.0 mph 96% 0.00 in
07:34 35.6 °F 34.6 °F 29.94 in WSW 8.0 mph 17.0 mph 96% 0.00 in
07:39 35.6 °F 34.6 °F 29.94 in WSW 8.0 mph 17.0 mph 96% 0.00 in
07:44 35.5 °F 34.5 °F 29.93 in WSW 7.0 mph 15.0 mph 96% 0.00 in
07:49 35.5 °F 34.5 °F 29.93 in WSW 8.0 mph 15.0 mph 96% 0.00 in
07:54 35.5 °F 34.5 °F 29.93 in WSW 7.0 mph 14.0 mph 96% 0.00 in
07:59 35.6 °F 34.6 °F 29.94 in West 11.0 mph 14.0 mph 96% 0.00 in
08:04 35.5 °F 34.5 °F 29.94 in WSW 7.0 mph 14.0 mph 96% 0.00 in
08:09 35.6 °F 34.6 °F 29.94 in WSW 7.0 mph 14.0 mph 96% 0.00 in
08:14 35.6 °F 34.6 °F 29.94 in WSW 7.0 mph 14.0 mph 96% 0.00 in
08:19 35.6 °F 34.6 °F 29.94 in WSW 6.0 mph 14.0 mph 96% 0.00 in
08:24 35.6 °F 34.6 °F 29.94 in West 5.0 mph 15.0 mph 96% 0.00 in
08:29 35.6 °F 34.6 °F 29.95 in WSW 6.0 mph 14.0 mph 96% 0.00 in
08:34 35.6 °F 34.6 °F 29.95 in West 5.0 mph 14.0 mph 96% 0.00 in
08:39 35.5 °F 34.5 °F 29.95 in WSW 7.0 mph 14.0 mph 96% 0.00 in
08:44 35.6 °F 34.6 °F 29.96 in WSW 13.0 mph 17.0 mph 96% 0.00 in
08:49 35.5 °F 34.5 °F 29.96 in WNW 5.0 mph 17.0 mph 96% 0.00 in
08:54 35.5 °F 34.5 °F 29.97 in SW 6.0 mph 17.0 mph 96% 0.00 in
08:59 35.5 °F 34.2 °F 29.97 in WSW 14.0 mph 14.0 mph 95% 0.00 in
09:04 35.5 °F 34.2 °F 29.97 in WNW 7.0 mph 14.0 mph 95% 0.00 in
09:09 35.5 °F 34.2 °F 29.97 in WSW 8.0 mph 15.0 mph 95% 0.00 in
09:14 35.5 °F 34.5 °F 29.97 in WSW 8.0 mph 15.0 mph 96% 0.00 in
09:19 35.5 °F 34.5 °F 29.98 in WSW 7.0 mph 13.0 mph 96% 0.00 in
09:24 35.6 °F 34.6 °F 29.98 in SW 7.0 mph 14.0 mph 96% 0.00 in
09:29 35.6 °F 34.6 °F 29.98 in South 7.0 mph 11.0 mph 96% 0.00 in
09:34 35.6 °F 34.6 °F 29.98 in SW 12.0 mph 14.0 mph 96% 0.00 in
09:39 35.7 °F 34.7 °F 29.98 in WSW 7.0 mph 14.0 mph 96% 0.00 in
09:44 35.7 °F 34.7 °F 29.99 in WSW 7.0 mph 13.0 mph 96% 0.00 in
09:49 35.8 °F 34.8 °F 29.99 in WSW 7.0 mph 13.0 mph 96% 0.00 in
09:54 35.8 °F 34.5 °F 29.99 in WSW 7.0 mph 13.0 mph 95% 0.00 in
09:59 35.9 °F 34.6 °F 29.99 in WSW 9.0 mph 13.0 mph 95% 0.00 in
10:04 35.8 °F 34.5 °F 29.99 in WSW 5.0 mph 20.0 mph 95% 0.00 in
10:09 35.9 °F 34.6 °F 30.00 in WSW 7.0 mph 20.0 mph 95% 0.00 in
10:14 35.9 °F 34.6 °F 30.00 in WSW 7.0 mph 18.0 mph 95% 0.00 in
10:19 35.9 °F 34.6 °F 30.00 in West 7.0 mph 14.0 mph 95% 0.00 in
10:44 36.0 °F 34.7 °F 30.01 in WSW 7.0 mph 13.0 mph 95% 0.00 in
10:49 35.9 °F 34.6 °F 30.01 in WSW 7.0 mph 13.0 mph 95% 0.00 in
10:54 36.0 °F 34.7 °F 30.01 in West 7.0 mph 12.0 mph 95% 0.00 in
11:09 36.1 °F 34.8 °F 30.01 in WSW 6.0 mph 15.0 mph 95% 0.00 in
11:14 36.1 °F 34.8 °F 30.00 in WSW 6.0 mph 15.0 mph 95% 0.00 in
11:19 36.1 °F 34.8 °F 30.00 in WSW 6.0 mph 11.0 mph 95% 0.00 in
11:24 36.2 °F 34.9 °F 30.00 in WSW 6.0 mph 11.0 mph 95% 0.00 in
11:29 36.3 °F 35.0 °F 30.00 in WSW 6.0 mph 12.0 mph 95% 0.00 in
11:34 36.3 °F 35.0 °F 29.99 in SSW 7.0 mph 11.0 mph 95% 0.00 in
11:39 36.3 °F 35.0 °F 29.99 in WSW 8.0 mph 13.0 mph 95% 0.00 in
11:44 36.5 °F 35.2 °F 29.99 in WSW 8.0 mph 14.0 mph 95% 0.00 in
11:49 36.5 °F 35.2 °F 29.99 in WSW 7.0 mph 14.0 mph 95% 0.00 in
11:54 36.5 °F 34.9 °F 29.99 in WSW 7.0 mph 13.0 mph 94% 0.00 in
11:59 36.6 °F 35.0 °F 29.99 in WSW 7.0 mph 17.0 mph 94% 0.00 in
12:04 36.7 °F 35.1 °F 29.99 in WSW 4.0 mph 12.0 mph 94% 0.00 in
12:09 36.6 °F 35.0 °F 29.99 in West 4.0 mph 17.0 mph 94% 0.00 in
12:14 36.7 °F 35.1 °F 29.98 in WSW 7.0 mph 17.0 mph 94% 0.00 in
12:19 36.7 °F 35.1 °F 29.98 in WSW 8.0 mph 16.0 mph 94% 0.00 in
12:24 36.6 °F 35.0 °F 29.99 in WSW 9.0 mph 16.0 mph 94% 0.00 in
12:29 36.6 °F 35.0 °F 29.99 in West 9.0 mph 19.0 mph 94% 0.00 in
12:34 36.6 °F 35.0 °F 29.99 in West 8.0 mph 16.0 mph 94% 0.00 in
12:39 36.5 °F 34.9 °F 29.99 in NW 8.0 mph 16.0 mph 94% 0.00 in
12:44 36.5 °F 34.9 °F 29.99 in WSW 7.0 mph 16.0 mph 94% 0.00 in
12:49 36.5 °F 34.9 °F 29.99 in WSW 7.0 mph 15.0 mph 94% 0.00 in
12:54 36.5 °F 34.9 °F 29.99 in WSW 7.0 mph 15.0 mph 94% 0.00 in
12:59 36.7 °F 35.1 °F 29.99 in SW 10.0 mph 17.0 mph 94% 0.00 in
13:04 36.6 °F 35.0 °F 29.99 in SW 7.0 mph 14.0 mph 94% 0.00 in
13:09 36.5 °F 34.9 °F 29.99 in SW 5.0 mph 15.0 mph 94% 0.00 in
13:14 36.6 °F 35.0 °F 30.00 in WSW 8.0 mph 15.0 mph 94% 0.00 in
13:19 36.5 °F 34.9 °F 30.00 in WSW 7.0 mph 18.0 mph 94% 0.00 in
13:24 36.5 °F 34.9 °F 30.00 in WSW 7.0 mph 18.0 mph 94% 0.00 in
13:29 36.4 °F 34.8 °F 30.00 in WSW 7.0 mph 16.0 mph 94% 0.00 in
13:34 36.4 °F 34.8 °F 30.00 in WSW 5.0 mph 15.0 mph 94% 0.00 in
13:39 36.2 °F 34.6 °F 30.00 in West 9.0 mph 16.0 mph 94% 0.01 in
13:44 36.1 °F 34.5 °F 30.00 in WSW 8.0 mph 16.0 mph 94% 0.01 in
13:49 36.2 °F 34.9 °F 30.00 in WSW 7.0 mph 15.0 mph 95% 0.01 in
13:54 36.2 °F 34.6 °F 30.00 in WNW 6.0 mph 13.0 mph 94% 0.01 in
13:59 36.2 °F 34.9 °F 30.00 in WSW 3.0 mph 11.0 mph 95% 0.01 in
14:04 36.4 °F 35.1 °F 30.00 in WSW 3.0 mph 13.0 mph 95% 0.01 in
14:09 36.4 °F 35.1 °F 30.00 in WSW 11.0 mph 15.0 mph 95% 0.01 in
14:14 36.2 °F 34.9 °F 30.00 in West 4.0 mph 18.0 mph 95% 0.01 in
14:19 36.2 °F 34.9 °F 30.00 in WSW 7.0 mph 18.0 mph 95% 0.01 in
14:24 36.2 °F 34.9 °F 30.00 in WSW 7.0 mph 17.0 mph 95% 0.01 in
14:29 36.1 °F 34.5 °F 30.01 in WSW 8.0 mph 17.0 mph 94% 0.01 in
14:34 36.1 °F 34.5 °F 30.01 in WSW 8.0 mph 16.0 mph 94% 0.01 in
14:39 36.1 °F 34.8 °F 30.01 in WSW 4.0 mph 11.0 mph 95% 0.00 in
14:44 36.0 °F 34.4 °F 30.01 in NNW 6.0 mph 14.0 mph 94% 0.00 in
14:49 36.1 °F 34.8 °F 30.01 in West 3.0 mph 11.0 mph 95% 0.00 in
14:54 36.1 °F 34.8 °F 30.01 in SW 8.0 mph 14.0 mph 95% 0.00 in
14:59 36.0 °F 34.7 °F 30.01 in SW 9.0 mph 15.0 mph 95% 0.00 in
15:04 35.9 °F 34.6 °F 30.01 in WSW 3.0 mph 13.0 mph 95% 0.00 in
15:09 36.0 °F 34.7 °F 30.02 in West 7.0 mph 13.0 mph 95% 0.00 in
15:14 35.9 °F 34.6 °F 30.01 in WSW 7.0 mph 13.0 mph 95% 0.00 in
15:19 36.0 °F 34.7 °F 30.02 in WSW 6.0 mph 13.0 mph 95% 0.00 in
15:24 35.9 °F 34.6 °F 30.02 in WSW 6.0 mph 12.0 mph 95% 0.00 in
15:29 35.9 °F 34.6 °F 30.03 in WSW 8.0 mph 18.0 mph 95% 0.00 in
15:34 35.8 °F 34.5 °F 30.03 in WSW 10.0 mph 13.0 mph 95% 0.00 in
15:39 35.8 °F 34.5 °F 30.03 in SW 9.0 mph 17.0 mph 95% 0.00 in
15:44 35.7 °F 34.4 °F 30.04 in West 6.0 mph 15.0 mph 95% 0.00 in
15:49 35.7 °F 34.4 °F 30.04 in WSW 8.0 mph 16.0 mph 95% 0.00 in
15:54 35.7 °F 34.4 °F 30.04 in WSW 7.0 mph 16.0 mph 95% 0.00 in
15:59 35.7 °F 34.4 °F 30.04 in WSW 3.0 mph 12.0 mph 95% 0.00 in
16:04 35.7 °F 34.4 °F 30.04 in SW 7.0 mph 15.0 mph 95% 0.00 in
16:09 35.7 °F 34.4 °F 30.04 in SW 8.0 mph 11.0 mph 95% 0.00 in
16:14 35.7 °F 34.4 °F 30.04 in WSW 8.0 mph 14.0 mph 95% 0.00 in
16:19 35.7 °F 34.4 °F 30.04 in SW 6.0 mph 11.0 mph 95% 0.00 in
16:24 35.7 °F 34.4 °F 30.04 in WSW 6.0 mph 11.0 mph 95% 0.00 in
16:29 35.6 °F 34.3 °F 30.04 in WSW 6.0 mph 11.0 mph 95% 0.00 in
16:34 35.7 °F 34.4 °F 30.04 in WSW 7.0 mph 14.0 mph 95% 0.00 in
16:39 35.6 °F 34.3 °F 30.04 in SW 5.0 mph 12.0 mph 95% 0.00 in
16:44 35.6 °F 34.3 °F 30.04 in West 13.0 mph 13.0 mph 95% 0.00 in
16:49 35.6 °F 34.3 °F 30.05 in West 3.0 mph 13.0 mph 95% 0.00 in
16:54 35.5 °F 34.2 °F 30.05 in WSW 6.0 mph 13.0 mph 95% 0.00 in
16:59 35.5 °F 34.2 °F 30.04 in WSW 6.0 mph 11.0 mph 95% 0.00 in
17:04 35.5 °F 34.2 °F 30.05 in WSW 5.0 mph 11.0 mph 95% 0.00 in
17:09 35.4 °F 34.1 °F 30.05 in WSW 5.0 mph 14.0 mph 95% 0.00 in
17:14 35.4 °F 34.1 °F 30.05 in WSW 3.0 mph 12.0 mph 95% 0.00 in
17:19 35.4 °F 34.1 °F 30.05 in West 4.0 mph 10.0 mph 95% 0.00 in
17:24 35.3 °F 34.0 °F 30.05 in SW 6.0 mph 14.0 mph 95% 0.00 in
17:29 35.3 °F 34.0 °F 30.04 in WSW 7.0 mph 14.0 mph 95% 0.00 in
17:34 35.3 °F 34.0 °F 30.04 in WSW 6.0 mph 14.0 mph 95% 0.00 in
17:39 35.3 °F 34.0 °F 30.04 in SW 8.0 mph 9.0 mph 95% 0.01 in
17:44 35.3 °F 34.0 °F 30.04 in SW 11.0 mph 13.0 mph 95% 0.01 in
17:49 35.3 °F 34.0 °F 30.05 in WSW 5.0 mph 14.0 mph 95% 0.01 in
17:54 35.3 °F 34.0 °F 30.05 in West 4.0 mph 12.0 mph 95% 0.01 in
17:59 35.3 °F 34.0 °F 30.05 in WSW 5.0 mph 12.0 mph 95% 0.01 in
18:04 35.3 °F 34.0 °F 30.06 in WSW 6.0 mph 12.0 mph 95% 0.01 in
18:09 35.3 °F 34.0 °F 30.06 in WSW 6.0 mph 13.0 mph 95% 0.01 in
18:14 35.4 °F 34.1 °F 30.06 in WSW 6.0 mph 13.0 mph 95% 0.01 in
18:19 35.4 °F 34.1 °F 30.05 in WSW 6.0 mph 10.0 mph 95% 0.01 in
18:24 35.3 °F 34.0 °F 30.05 in SW 9.0 mph 12.0 mph 95% 0.01 in
18:29 35.4 °F 34.1 °F 30.05 in SW 6.0 mph 13.0 mph 95% 0.01 in
18:34 35.4 °F 34.1 °F 30.04 in SW 7.0 mph 14.0 mph 95% 0.01 in
18:39 35.4 °F 34.1 °F 30.04 in SW 7.0 mph 14.0 mph 95% 0.00 in
18:44 35.4 °F 34.1 °F 30.04 in SW 9.0 mph 12.0 mph 95% 0.00 in
18:49 35.3 °F 34.0 °F 30.04 in WSW 5.0 mph 14.0 mph 95% 0.00 in
18:54 35.4 °F 34.1 °F 30.04 in WSW 8.0 mph 10.0 mph 95% 0.00 in
18:59 35.3 °F 34.0 °F 30.04 in WSW 7.0 mph 12.0 mph 95% 0.00 in
19:04 35.4 °F 34.1 °F 30.03 in SW 5.0 mph 14.0 mph 95% 0.00 in
19:09 35.3 °F 34.0 °F 30.03 in SW 7.0 mph 14.0 mph 95% 0.00 in
19:14 35.4 °F 34.1 °F 30.03 in SW 6.0 mph 12.0 mph 95% 0.00 in
19:19 35.3 °F 34.0 °F 30.03 in SW 7.0 mph 16.0 mph 95% 0.00 in
19:24 35.4 °F 34.1 °F 30.03 in SW 8.0 mph 16.0 mph 95% 0.00 in
19:29 35.4 °F 34.1 °F 30.03 in WSW 9.0 mph 15.0 mph 95% 0.00 in
19:34 35.5 °F 34.2 °F 30.03 in WSW 7.0 mph 14.0 mph 95% 0.00 in
19:39 35.4 °F 34.1 °F 30.04 in WSW 7.0 mph 14.0 mph 95% 0.00 in
19:44 35.5 °F 34.2 °F 30.04 in WSW 7.0 mph 15.0 mph 95% 0.00 in
19:49 35.5 °F 34.2 °F 30.04 in SW 8.0 mph 17.0 mph 95% 0.00 in
19:54 35.5 °F 34.2 °F 30.04 in WNW 5.0 mph 13.0 mph 95% 0.00 in
19:59 35.5 °F 34.2 °F 30.04 in SSE 9.0 mph 15.0 mph 95% 0.00 in
20:04 35.5 °F 34.5 °F 30.04 in WSW 9.0 mph 16.0 mph 96% 0.00 in
20:09 35.5 °F 34.2 °F 30.04 in WSW 8.0 mph 17.0 mph 95% 0.00 in
20:14 35.5 °F 34.5 °F 30.04 in WSW 7.0 mph 17.0 mph 96% 0.00 in
20:19 35.5 °F 34.2 °F 30.04 in WSW 7.0 mph 14.0 mph 95% 0.00 in
20:24 35.5 °F 34.2 °F 30.04 in WSW 8.0 mph 16.0 mph 95% 0.00 in
20:29 35.5 °F 34.2 °F 30.04 in West 8.0 mph 15.0 mph 95% 0.00 in
20:34 35.5 °F 34.2 °F 30.04 in WSW 5.0 mph 16.0 mph 95% 0.00 in
20:39 35.4 °F 34.1 °F 30.04 in WSW 7.0 mph 16.0 mph 95% 0.01 in
20:44 35.4 °F 34.1 °F 30.04 in SW 7.0 mph 16.0 mph 95% 0.01 in
20:49 35.4 °F 34.1 °F 30.04 in WSW 12.0 mph 13.0 mph 95% 0.01 in
20:54 35.4 °F 34.1 °F 30.04 in SW 8.0 mph 14.0 mph 95% 0.01 in
20:59 35.4 °F 34.1 °F 30.03 in WSW 5.0 mph 15.0 mph 95% 0.01 in
21:04 35.4 °F 34.1 °F 30.03 in West 5.0 mph 12.0 mph 95% 0.01 in
21:09 35.4 °F 34.4 °F 30.03 in SW 7.0 mph 14.0 mph 96% 0.01 in
21:14 35.4 °F 34.1 °F 30.02 in SW 7.0 mph 16.0 mph 95% 0.01 in
21:19 35.4 °F 34.4 °F 30.03 in SW 8.0 mph 19.0 mph 96% 0.01 in
21:24 35.5 °F 34.5 °F 30.03 in WSW 8.0 mph 19.0 mph 96% 0.01 in
21:29 35.5 °F 34.5 °F 30.03 in SW 7.0 mph 12.0 mph 96% 0.01 in
21:34 35.5 °F 34.5 °F 30.02 in WSW 8.0 mph 14.0 mph 96% 0.01 in
21:39 35.5 °F 34.5 °F 30.03 in WSW 6.0 mph 15.0 mph 96% 0.00 in
21:44 35.5 °F 34.5 °F 30.02 in SW 14.0 mph 18.0 mph 96% 0.00 in
21:49 35.5 °F 34.5 °F 30.03 in South 6.0 mph 15.0 mph 96% 0.00 in
21:54 35.5 °F 34.5 °F 30.03 in SW 10.0 mph 13.0 mph 96% 0.00 in
21:59 35.5 °F 34.5 °F 30.03 in West 7.0 mph 13.0 mph 96% 0.00 in
22:04 35.6 °F 34.6 °F 30.03 in SW 5.0 mph 16.0 mph 96% 0.00 in
22:09 35.5 °F 34.5 °F 30.03 in SSW 2.0 mph 14.0 mph 96% 0.00 in
22:14 35.6 °F 34.6 °F 30.03 in WSW 6.0 mph 18.0 mph 96% 0.00 in
22:19 35.6 °F 34.6 °F 30.03 in SW 8.0 mph 18.0 mph 96% 0.00 in
22:24 35.5 °F 34.5 °F 30.03 in SW 8.0 mph 16.0 mph 96% 0.00 in
22:29 35.6 °F 34.6 °F 30.03 in WSW 8.0 mph 16.0 mph 96% 0.00 in
22:34 35.6 °F 34.6 °F 30.04 in WSW 8.0 mph 16.0 mph 96% 0.00 in
22:39 35.7 °F 34.7 °F 30.04 in WSW 8.0 mph 15.0 mph 96% 0.00 in
22:44 35.7 °F 34.7 °F 30.04 in SW 9.0 mph 16.0 mph 96% 0.00 in
22:49 35.8 °F 34.8 °F 30.05 in SW 6.0 mph 15.0 mph 96% 0.00 in
22:54 35.9 °F 34.9 °F 30.04 in SW 8.0 mph 17.0 mph 96% 0.00 in
22:59 35.9 °F 34.9 °F 30.05 in West 9.0 mph 15.0 mph 96% 0.00 in
23:04 35.9 °F 34.9 °F 30.04 in South 7.0 mph 15.0 mph 96% 0.00 in
23:09 35.9 °F 34.9 °F 30.05 in West 8.0 mph 13.0 mph 96% 0.00 in
23:14 35.9 °F 34.9 °F 30.05 in SW 8.0 mph 15.0 mph 96% 0.00 in
23:19 35.9 °F 34.9 °F 30.05 in WSW 8.0 mph 15.0 mph 96% 0.01 in
23:24 36.0 °F 35.0 °F 30.05 in WSW 8.0 mph 17.0 mph 96% 0.01 in
23:29 36.0 °F 35.0 °F 30.05 in WSW 8.0 mph 17.0 mph 96% 0.01 in
23:34 36.0 °F 35.0 °F 30.05 in WSW 8.0 mph 16.0 mph 96% 0.01 in
23:39 36.0 °F 35.0 °F 30.05 in WSW 8.0 mph 16.0 mph 96% 0.01 in
23:44 36.0 °F 35.0 °F 30.05 in WSW 8.0 mph 18.0 mph 96% 0.01 in
23:49 36.1 °F 35.1 °F 30.05 in SW 11.0 mph 15.0 mph 96% 0.01 in
23:54 36.1 °F 35.1 °F 30.05 in WSW 9.0 mph 17.0 mph 96% 0.01 in
23:59 36.1 °F 35.1 °F 30.05 in WSW 5.0 mph 18.0 mph 96% 0.01 in
Buffalo, New York, USA
Compliments of Weather Underground - 2.5 mb